createdAt,value
2019-06-26T00:01:52.711Z,99.90
2019-06-26T00:06:47.398Z,99.90
2019-06-26T00:11:42.047Z,99.90
2019-06-26T00:16:36.694Z,99.90
2019-06-26T00:21:31.284Z,99.90
2019-06-26T00:26:25.899Z,99.90
2019-06-26T00:31:20.469Z,99.90
2019-06-26T00:36:15.547Z,99.90
2019-06-26T00:41:10.130Z,99.90
2019-06-26T00:46:04.720Z,99.90
2019-06-26T00:50:59.319Z,99.90
2019-06-26T00:55:55.235Z,99.90
2019-06-26T01:00:53.337Z,99.90
2019-06-26T01:05:47.992Z,99.90
2019-06-26T01:10:42.758Z,99.90
2019-06-26T01:15:37.352Z,99.90
2019-06-26T01:20:31.943Z,99.90
2019-06-26T01:25:26.541Z,99.90
2019-06-26T01:30:21.914Z,99.90
2019-06-26T01:35:16.586Z,99.90
2019-06-26T01:40:12.192Z,99.90
2019-06-26T01:45:08.405Z,99.90
2019-06-26T01:50:03.093Z,99.90
2019-06-26T01:54:57.679Z,99.90
2019-06-26T01:59:52.274Z,99.90
2019-06-26T02:04:46.869Z,99.90
2019-06-26T02:09:41.480Z,99.90
2019-06-26T02:14:36.078Z,99.90
2019-06-26T02:19:30.671Z,99.90
2019-06-26T02:24:25.253Z,99.90
2019-06-26T02:29:19.850Z,99.90
2019-06-26T02:34:14.441Z,99.90
2019-06-26T02:39:09.059Z,99.90
2019-06-26T02:44:03.751Z,99.90
2019-06-26T02:48:58.388Z,99.90
2019-06-26T02:53:52.993Z,99.90
2019-06-26T02:58:47.609Z,99.90
2019-06-26T03:03:42.251Z,99.90
2019-06-26T03:08:36.910Z,99.90
2019-06-26T03:13:31.490Z,99.90
2019-06-26T03:18:26.099Z,99.90
2019-06-26T03:23:20.704Z,99.90
2019-06-26T03:28:15.274Z,99.90
2019-06-26T03:33:09.878Z,99.90
2019-06-26T03:38:04.705Z,99.90
2019-06-26T03:42:59.292Z,99.90
2019-06-26T03:47:53.884Z,99.90
2019-06-26T03:52:48.535Z,99.90
2019-06-26T03:57:43.132Z,99.90
2019-06-26T04:02:37.728Z,99.90
2019-06-26T04:07:32.301Z,99.90
2019-06-26T04:12:26.895Z,99.90
2019-06-26T04:17:21.488Z,99.90
2019-06-26T04:22:16.123Z,99.90
2019-06-26T04:27:10.671Z,99.90
2019-06-26T04:32:05.324Z,99.90
2019-06-26T04:36:59.917Z,99.90
2019-06-26T04:41:54.510Z,99.90
2019-06-26T04:46:49.106Z,99.90
2019-06-26T04:51:43.702Z,99.90
2019-06-26T04:56:38.302Z,99.90
2019-06-26T05:01:32.887Z,99.90
2019-06-26T05:06:27.480Z,99.90
2019-06-26T05:11:22.103Z,99.90
2019-06-26T05:16:20.282Z,99.90
2019-06-26T05:21:13.004Z,99.90
2019-06-26T05:26:07.579Z,99.90
2019-06-26T05:31:02.172Z,99.90
2019-06-26T05:35:56.749Z,99.90
2019-06-26T05:40:51.451Z,99.90
2019-06-26T05:45:46.125Z,99.90
2019-06-26T05:50:40.732Z,99.90
2019-06-26T05:55:35.531Z,99.90
2019-06-26T06:00:30.129Z,99.90
2019-06-26T06:05:24.780Z,99.90
2019-06-26T06:10:20.087Z,99.90
2019-06-26T06:15:15.904Z,99.90
2019-06-26T06:20:12.513Z,99.90
2019-06-26T06:25:07.904Z,99.90
2019-06-26T06:30:02.692Z,99.90
2019-06-26T06:34:57.354Z,99.90
2019-06-26T06:39:51.956Z,99.90
2019-06-26T06:44:47.640Z,99.90
2019-06-26T06:49:42.296Z,99.90
2019-06-26T06:54:37.184Z,99.90
2019-06-26T06:59:34.556Z,99.90
2019-06-26T07:04:29.581Z,99.90
2019-06-26T07:09:24.986Z,99.90
2019-06-26T07:14:20.782Z,99.90
2019-06-26T07:19:15.945Z,99.90
2019-06-26T07:24:10.616Z,99.90
2019-06-26T07:29:05.246Z,99.90
2019-06-26T07:34:00.035Z,99.90
2019-06-26T07:38:54.787Z,99.90
2019-06-26T07:43:54.558Z,99.90
2019-06-26T07:48:49.933Z,99.90
2019-06-26T07:53:45.490Z,99.90
2019-06-26T07:58:42.021Z,99.90
2019-06-26T08:03:38.731Z,99.90
2019-06-26T08:08:33.416Z,99.90
2019-06-26T08:13:32.969Z,99.90
2019-06-26T08:18:27.989Z,99.90
2019-06-26T08:23:22.593Z,99.90
2019-06-26T08:28:17.185Z,99.90
2019-06-26T08:33:11.763Z,99.90
2019-06-26T08:38:12.513Z,99.90
2019-06-26T08:43:02.689Z,99.90
2019-06-26T08:47:57.954Z,99.90
2019-06-26T08:52:52.613Z,99.90
2019-06-26T08:57:47.287Z,99.90
2019-06-26T09:02:43.079Z,99.90
2019-06-26T09:07:37.801Z,99.90
2019-06-26T09:12:32.386Z,99.90
2019-06-26T09:17:27.013Z,99.90
2019-06-26T09:22:21.641Z,99.90
2019-06-26T09:27:16.256Z,99.90
2019-06-26T09:32:10.995Z,99.90
2019-06-26T09:37:05.651Z,99.90
2019-06-26T09:42:01.246Z,99.90
2019-06-26T09:46:55.824Z,99.90
2019-06-26T09:51:50.562Z,99.90
2019-06-26T09:56:49.772Z,99.90
2019-06-26T10:01:44.699Z,99.90
2019-06-26T10:06:41.803Z,99.90
2019-06-26T10:11:36.818Z,99.90
2019-06-26T10:16:33.113Z,99.90
2019-06-26T10:21:30.842Z,99.90
2019-06-26T10:26:32.195Z,99.90
2019-06-26T10:31:24.991Z,99.90
2019-06-26T10:36:19.574Z,99.90
2019-06-26T10:41:14.958Z,99.90
2019-06-26T10:46:14.489Z,99.90
2019-06-26T10:51:15.204Z,99.90
2019-06-26T10:56:10.894Z,99.90
2019-06-26T11:01:10.099Z,99.90
2019-06-26T11:06:06.629Z,99.90
2019-06-26T11:11:01.393Z,99.90
2019-06-26T11:15:56.009Z,99.90
2019-06-26T11:20:51.018Z,99.90
2019-06-26T11:25:45.730Z,99.90
2019-06-26T11:30:43.682Z,99.90
2019-06-26T11:35:39.542Z,99.90
2019-06-26T11:40:34.888Z,99.90
2019-06-26T11:45:29.763Z,99.90
2019-06-26T11:50:33.461Z,99.90
2019-06-26T11:55:28.539Z,99.90
2019-06-26T12:00:25.073Z,99.90
2019-06-26T12:05:20.589Z,99.90
2019-06-26T12:10:18.996Z,99.90
2019-06-26T12:15:15.902Z,99.90
2019-06-26T12:20:18.360Z,99.90
2019-06-26T12:25:10.249Z,99.40
2019-06-26T12:30:09.698Z,99.90
2019-06-26T12:35:06.429Z,99.70
2019-06-26T12:40:08.754Z,99.90
2019-06-26T12:45:06.353Z,99.70
2019-06-26T12:50:01.177Z,99.90
2019-06-26T12:54:55.811Z,99.60
2019-06-26T12:59:57.410Z,99.10
2019-06-26T13:04:47.083Z,99.50
2019-06-26T13:09:47.566Z,98.80
2019-06-26T13:14:47.154Z,99.30
2019-06-26T13:19:42.747Z,98.60
2019-06-26T13:24:37.440Z,98.30
2019-06-26T13:29:32.147Z,98.30
2019-06-26T13:34:27.133Z,98.10
2019-06-26T13:39:22.129Z,97.60
2019-06-26T13:44:17.466Z,97.20
2019-06-26T13:49:16.470Z,97.00
2019-06-26T13:54:10.649Z,96.40
2019-06-26T13:59:08.788Z,93.40
2019-06-26T14:04:03.687Z,92.10
2019-06-26T14:08:58.865Z,93.10
2019-06-26T14:13:53.450Z,93.00
2019-06-26T14:18:48.162Z,91.30
2019-06-26T14:23:43.619Z,91.50
2019-06-26T14:28:38.295Z,92.00
2019-06-26T14:33:33.036Z,91.90
2019-06-26T14:38:27.749Z,91.70
2019-06-26T14:43:22.339Z,91.80
2019-06-26T14:48:16.972Z,92.20
2019-06-26T14:53:11.805Z,92.90
2019-06-26T14:58:06.447Z,93.90
2019-06-26T15:03:03.750Z,94.50
2019-06-26T15:07:58.828Z,94.30
2019-06-26T15:12:53.454Z,92.90
2019-06-26T15:17:48.054Z,92.40
2019-06-26T15:22:42.644Z,92.00
2019-06-26T15:27:37.341Z,89.80
2019-06-26T15:32:31.958Z,83.20
2019-06-26T15:37:26.651Z,81.90
2019-06-26T15:42:21.491Z,80.00
2019-06-26T15:47:16.481Z,77.60
2019-06-26T15:52:15.402Z,79.60
2019-06-26T15:57:07.541Z,82.30
2019-06-26T16:02:02.346Z,83.20
2019-06-26T16:06:57.018Z,86.80
2019-06-26T16:11:51.652Z,87.60
2019-06-26T16:16:48.100Z,86.80
2019-06-26T16:21:43.042Z,86.10
2019-06-26T16:26:37.703Z,85.90
2019-06-26T16:31:33.587Z,84.20
2019-06-26T16:36:28.191Z,83.20
2019-06-26T16:41:22.816Z,81.80
2019-06-26T16:46:17.451Z,82.00
2019-06-26T16:51:12.059Z,81.90
2019-06-26T16:56:06.680Z,81.60
2019-06-26T17:01:01.470Z,83.40
2019-06-26T17:05:56.327Z,86.40
2019-06-26T17:10:51.049Z,86.30
2019-06-26T17:15:45.680Z,85.80
2019-06-26T17:20:40.297Z,85.70
2019-06-26T17:25:35.036Z,86.60
2019-06-26T17:30:29.715Z,88.00
2019-06-26T17:35:24.301Z,89.40
2019-06-26T17:40:19.133Z,89.10
2019-06-26T17:45:15.335Z,90.00
2019-06-26T17:50:10.963Z,88.90
2019-06-26T17:55:09.440Z,85.70
2019-06-26T18:00:06.921Z,84.20
2019-06-26T18:05:01.941Z,86.30
2019-06-26T18:09:56.526Z,91.90
2019-06-26T18:14:51.221Z,93.20
2019-06-26T18:19:45.881Z,93.40
2019-06-26T18:24:40.494Z,93.90
2019-06-26T18:29:35.114Z,93.90
2019-06-26T18:34:29.754Z,94.60
2019-06-26T18:39:24.434Z,97.80
2019-06-26T18:44:19.069Z,99.40
2019-06-26T18:49:13.765Z,99.90
2019-06-26T18:54:08.381Z,99.90
2019-06-26T18:59:03.005Z,99.90
2019-06-26T19:03:57.576Z,99.90
2019-06-26T19:08:52.190Z,99.90
2019-06-26T19:13:46.803Z,99.90
2019-06-26T19:18:41.496Z,99.90
2019-06-26T19:23:36.091Z,99.90
2019-06-26T19:28:30.742Z,99.90
2019-06-26T19:33:25.350Z,99.90
2019-06-26T19:38:20.020Z,99.90
2019-06-26T19:43:14.701Z,99.90
2019-06-26T19:48:09.372Z,99.90
2019-06-26T19:53:04.149Z,99.90
2019-06-26T19:57:58.760Z,99.90
2019-06-26T20:02:53.420Z,99.90
2019-06-26T20:07:48.067Z,99.90
2019-06-26T20:12:43.482Z,99.90
2019-06-26T20:17:38.179Z,99.90
2019-06-26T20:22:32.764Z,99.90
2019-06-26T20:27:27.373Z,99.90
2019-06-26T20:32:21.976Z,99.90
2019-06-26T20:37:16.695Z,99.90
2019-06-26T20:42:11.351Z,99.90
2019-06-26T20:47:05.935Z,99.90
2019-06-26T20:52:00.552Z,99.90
2019-06-26T20:56:55.143Z,99.90
2019-06-26T21:01:49.833Z,99.90
2019-06-26T21:06:44.420Z,99.90
2019-06-26T21:11:39.057Z,99.90
2019-06-26T21:16:33.652Z,99.90
2019-06-26T21:21:28.258Z,99.90
2019-06-26T21:26:22.871Z,99.90
2019-06-26T21:31:17.474Z,99.90
2019-06-26T21:36:12.069Z,99.90
2019-06-26T21:41:06.686Z,99.90
2019-06-26T21:46:01.276Z,99.90
2019-06-26T21:50:55.888Z,99.90
2019-06-26T21:55:50.496Z,99.90
2019-06-26T22:00:45.904Z,99.90
2019-06-26T22:05:40.514Z,99.90
2019-06-26T22:10:35.286Z,99.90
2019-06-26T22:15:29.903Z,99.90
2019-06-26T22:20:24.564Z,99.90
2019-06-26T22:25:19.386Z,99.90
2019-06-26T22:30:14.902Z,99.90
2019-06-26T22:35:10.398Z,99.90
2019-06-26T22:40:07.407Z,99.90
2019-06-26T22:45:02.085Z,99.90
2019-06-26T22:49:56.750Z,99.90
2019-06-26T22:54:51.480Z,99.90
2019-06-26T22:59:46.105Z,99.90
2019-06-26T23:04:40.699Z,99.90
2019-06-26T23:09:35.324Z,99.90
2019-06-26T23:14:29.915Z,99.90
2019-06-26T23:19:24.531Z,99.90
2019-06-26T23:24:19.128Z,99.90
2019-06-26T23:29:13.751Z,99.90
2019-06-26T23:34:08.335Z,99.90
2019-06-26T23:39:03.237Z,99.90
2019-06-26T23:43:57.821Z,99.90
2019-06-26T23:48:52.428Z,99.90
2019-06-26T23:53:47.099Z,99.90
2019-06-26T23:58:41.707Z,99.90
